sensor_id;sensor_type;location;lat;lon;timestamp;pressure;altitude;pressure_sealevel;temperature;humidity
76547;BME280;65390;53.014;8.886;2023-03-01T00:00:37;103133.28;;;0.26;84.43
76547;BME280;65390;53.014;8.886;2023-03-01T00:03:03;103133.28;;;0.25;84.09
76547;BME280;65390;53.014;8.886;2023-03-01T00:05:28;103129.50;;;0.06;84.03
76547;BME280;65390;53.014;8.886;2023-03-01T00:07:54;103137.50;;;0.14;84.40
76547;BME280;65390;53.014;8.886;2023-03-01T00:10:19;103123.91;;;-0.14;84.86
76547;BME280;65390;53.014;8.886;2023-03-01T00:12:44;103115.84;;;-0.23;84.67
76547;BME280;65390;53.014;8.886;2023-03-01T00:15:10;103123.06;;;-0.11;84.85
76547;BME280;65390;53.014;8.886;2023-03-01T00:17:36;103145.97;;;-0.07;85.04
76547;BME280;65390;53.014;8.886;2023-03-01T00:20:02;103115.97;;;-0.17;85.44
76547;BME280;65390;53.014;8.886;2023-03-01T00:22:27;103116.84;;;-0.18;85.24
76547;BME280;65390;53.014;8.886;2023-03-01T00:24:53;103116.06;;;-0.11;85.01
76547;BME280;65390;53.014;8.886;2023-03-01T00:27:19;103122.88;;;-0.23;84.80
76547;BME280;65390;53.014;8.886;2023-03-01T00:29:44;103144.13;;;-0.13;85.08
76547;BME280;65390;53.014;8.886;2023-03-01T00:32:10;103127.06;;;-0.36;85.30
76547;BME280;65390;53.014;8.886;2023-03-01T00:34:35;103111.22;;;-0.38;85.29
76547;BME280;65390;53.014;8.886;2023-03-01T00:37:00;103099.91;;;-0.32;84.90
76547;BME280;65390;53.014;8.886;2023-03-01T00:39:30;103148.75;;;0.01;84.43
76547;BME280;65390;53.014;8.886;2023-03-01T00:41:55;103105.94;;;-0.39;85.34
76547;BME280;65390;53.014;8.886;2023-03-01T00:44:21;103144.13;;;-0.14;85.54
76547;BME280;65390;53.014;8.886;2023-03-01T00:46:47;103100.72;;;-0.36;85.37
76547;BME280;65390;53.014;8.886;2023-03-01T00:49:13;103106.72;;;-0.45;85.21
76547;BME280;65390;53.014;8.886;2023-03-01T00:51:38;103107.59;;;-0.46;85.52
76547;BME280;65390;53.014;8.886;2023-03-01T00:54:08;103110.22;;;-0.47;85.95
76547;BME280;65390;53.014;8.886;2023-03-01T00:56:34;103138.28;;;-0.48;85.71
76547;BME280;65390;53.014;8.886;2023-03-01T00:58:59;103118.72;;;-0.62;86.24
76547;BME280;65390;53.014;8.886;2023-03-01T01:01:27;103136.75;;;-0.35;87.05
76547;BME280;65390;53.014;8.886;2023-03-01T01:04:06;103118.34;;;-0.34;86.58
76547;BME280;65390;53.014;8.886;2023-03-01T01:06:37;103112.19;;;-0.34;85.59
76547;BME280;65390;53.014;8.886;2023-03-01T01:09:04;103110.47;;;-0.82;85.83
76547;BME280;65390;53.014;8.886;2023-03-01T01:11:30;103126.63;;;-1.09;87.14
76547;BME280;65390;53.014;8.886;2023-03-01T01:13:57;103124.66;;;-1.20;87.69
76547;BME280;65390;53.014;8.886;2023-03-01T01:16:24;103131.06;;;-1.50;88.50
76547;BME280;65390;53.014;8.886;2023-03-01T01:18:50;103142.25;;;-1.60;89.21
76547;BME280;65390;53.014;8.886;2023-03-01T01:21:19;103129.84;;;-1.66;89.97
76547;BME280;65390;53.014;8.886;2023-03-01T01:23:45;103108.16;;;-1.56;90.17
76547;BME280;65390;53.014;8.886;2023-03-01T01:26:14;103119.22;;;-1.30;89.69
76547;BME280;65390;53.014;8.886;2023-03-01T01:28:40;103116.84;;;-1.16;89.37
76547;BME280;65390;53.014;8.886;2023-03-01T01:31:05;103138.38;;;-0.92;88.91
76547;BME280;65390;53.014;8.886;2023-03-01T01:33:32;103097.88;;;-1.00;88.24
76547;BME280;65390;53.014;8.886;2023-03-01T01:35:57;103098.00;;;-0.92;87.44
76547;BME280;65390;53.014;8.886;2023-03-01T01:38:23;103111.59;;;-0.69;87.33
76547;BME280;65390;53.014;8.886;2023-03-01T01:40:49;103086.06;;;-0.73;87.07
76547;BME280;65390;53.014;8.886;2023-03-01T01:43:25;103117.09;;;-0.54;86.53
76547;BME280;65390;53.014;8.886;2023-03-01T01:45:55;103065.31;;;-1.06;86.39
76547;BME280;65390;53.014;8.886;2023-03-01T01:48:23;103091.78;;;-0.97;86.80
76547;BME280;65390;53.014;8.886;2023-03-01T01:50:58;103078.50;;;-1.05;87.07
76547;BME280;65390;53.014;8.886;2023-03-01T01:53:25;103076.91;;;-0.95;87.23
76547;BME280;65390;53.014;8.886;2023-03-01T01:55:56;103092.84;;;-0.87;86.75
76547;BME280;65390;53.014;8.886;2023-03-01T01:58:25;103097.94;;;-0.95;86.71
76547;BME280;65390;53.014;8.886;2023-03-01T02:00:53;103086.53;;;-1.42;87.15
76547;BME280;65390;53.014;8.886;2023-03-01T02:03:23;103077.69;;;-1.88;88.22
76547;BME280;65390;53.014;8.886;2023-03-01T02:08:26;103067.22;;;-1.85;89.21
76547;BME280;65390;53.014;8.886;2023-03-01T02:10:52;103049.97;;;-2.15;89.49
76547;BME280;65390;53.014;8.886;2023-03-01T02:13:19;103087.78;;;-2.06;90.48
76547;BME280;65390;53.014;8.886;2023-03-01T02:15:45;103045.44;;;-2.20;90.72
76547;BME280;65390;53.014;8.886;2023-03-01T02:18:14;103069.53;;;-2.00;91.05
76547;BME280;65390;53.014;8.886;2023-03-01T02:23:34;103056.22;;;-2.08;91.12
76547;BME280;65390;53.014;8.886;2023-03-01T02:26:25;103054.19;;;-2.20;91.39
76547;BME280;65390;53.014;8.886;2023-03-01T02:28:52;103089.47;;;-2.10;91.50
76547;BME280;65390;53.014;8.886;2023-03-01T02:31:19;103062.03;;;-2.23;91.62
76547;BME280;65390;53.014;8.886;2023-03-01T02:34:05;103092.00;;;-2.15;91.85
76547;BME280;65390;53.014;8.886;2023-03-01T02:36:37;103063.72;;;-2.25;92.50
76547;BME280;65390;53.014;8.886;2023-03-01T02:39:06;103084.25;;;-2.08;92.64
76547;BME280;65390;53.014;8.886;2023-03-01T02:41:35;103073.72;;;-2.08;92.36
76547;BME280;65390;53.014;8.886;2023-03-01T02:44:02;103060.34;;;-2.19;92.46
76547;BME280;65390;53.014;8.886;2023-03-01T02:46:27;103073.97;;;-2.35;92.67
76547;BME280;65390;53.014;8.886;2023-03-01T02:48:56;103065.59;;;-2.19;92.62
76547;BME280;65390;53.014;8.886;2023-03-01T02:51:25;103075.91;;;-2.28;92.76
76547;BME280;65390;53.014;8.886;2023-03-01T02:56:31;103056.19;;;-2.49;93.42
76547;BME280;65390;53.014;8.886;2023-03-01T02:58:56;103060.78;;;-2.38;93.09
76547;BME280;65390;53.014;8.886;2023-03-01T03:01:27;103065.09;;;-2.40;93.38
76547;BME280;65390;53.014;8.886;2023-03-01T03:04:05;103068.44;;;-2.48;94.04
76547;BME280;65390;53.014;8.886;2023-03-01T03:06:31;103045.22;;;-2.31;93.99
76547;BME280;65390;53.014;8.886;2023-03-01T03:08:57;103048.50;;;-2.39;93.32
76547;BME280;65390;53.014;8.886;2023-03-01T03:11:22;103053.34;;;-2.56;93.54
76547;BME280;65390;53.014;8.886;2023-03-01T03:13:48;103074.13;;;-2.65;94.05
76547;BME280;65390;53.014;8.886;2023-03-01T03:16:14;103064.72;;;-2.56;94.62
76547;BME280;65390;53.014;8.886;2023-03-01T03:18:40;103064.44;;;-2.68;94.39
76547;BME280;65390;53.014;8.886;2023-03-01T03:21:09;103062.56;;;-2.72;94.77
76547;BME280;65390;53.014;8.886;2023-03-01T03:23:37;103068.28;;;-2.54;94.69
76547;BME280;65390;53.014;8.886;2023-03-01T03:26:05;103056.50;;;-2.69;94.84
76547;BME280;65390;53.014;8.886;2023-03-01T03:28:33;103040.06;;;-2.64;95.18
76547;BME280;65390;53.014;8.886;2023-03-01T03:30:59;103063.63;;;-2.65;95.26
76547;BME280;65390;53.014;8.886;2023-03-01T03:33:32;103038.00;;;-2.76;95.30
76547;BME280;65390;53.014;8.886;2023-03-01T03:35:58;103048.56;;;-2.72;95.49
76547;BME280;65390;53.014;8.886;2023-03-01T03:38:23;103059.88;;;-2.39;95.33
76547;BME280;65390;53.014;8.886;2023-03-01T03:40:51;103012.69;;;-2.36;95.08
76547;BME280;65390;53.014;8.886;2023-03-01T03:43:22;103025.94;;;-2.31;94.77
76547;BME280;65390;53.014;8.886;2023-03-01T03:45:49;103040.66;;;-1.99;94.05
76547;BME280;65390;53.014;8.886;2023-03-01T03:48:16;103043.75;;;-1.77;93.64
76547;BME280;65390;53.014;8.886;2023-03-01T03:50:47;103029.69;;;-1.79;92.41
76547;BME280;65390;53.014;8.886;2023-03-01T03:53:14;103025.25;;;-1.82;92.39
76547;BME280;65390;53.014;8.886;2023-03-01T03:55:40;103017.22;;;-1.90;91.61
76547;BME280;65390;53.014;8.886;2023-03-01T03:58:09;103023.47;;;-1.83;90.91
76547;BME280;65390;53.014;8.886;2023-03-01T04:00:37;103019.22;;;-1.78;90.56
76547;BME280;65390;53.014;8.886;2023-03-01T04:03:03;103000.66;;;-1.84;90.42
76547;BME280;65390;53.014;8.886;2023-03-01T04:05:29;103006.13;;;-1.75;89.75
76547;BME280;65390;53.014;8.886;2023-03-01T04:07:54;103000.91;;;-1.73;90.03
76547;BME280;65390;53.014;8.886;2023-03-01T04:10:39;103011.56;;;-1.66;89.63
76547;BME280;65390;53.014;8.886;2023-03-01T04:13:06;103003.69;;;-1.64;89.50
76547;BME280;65390;53.014;8.886;2023-03-01T04:15:32;102985.06;;;-1.76;89.02
76547;BME280;65390;53.014;8.886;2023-03-01T04:17:59;103008.00;;;-1.68;88.58
76547;BME280;65390;53.014;8.886;2023-03-01T04:20:27;102997.47;;;-1.69;88.60
76547;BME280;65390;53.014;8.886;2023-03-01T04:25:23;102987.34;;;-1.95;88.75
76547;BME280;65390;53.014;8.886;2023-03-01T04:27:49;102977.56;;;-2.00;88.86
76547;BME280;65390;53.014;8.886;2023-03-01T04:30:15;102976.81;;;-2.35;89.24
76547;BME280;65390;53.014;8.886;2023-03-01T04:32:41;102974.13;;;-2.38;89.74
76547;BME280;65390;53.014;8.886;2023-03-01T04:35:06;102980.75;;;-2.54;90.51
76547;BME280;65390;53.014;8.886;2023-03-01T04:37:32;102984.28;;;-2.54;91.03
76547;BME280;65390;53.014;8.886;2023-03-01T04:39:58;102988.97;;;-2.40;91.50
76547;BME280;65390;53.014;8.886;2023-03-01T04:42:23;102986.81;;;-2.19;90.95
76547;BME280;65390;53.014;8.886;2023-03-01T04:44:49;102991.31;;;-2.14;90.67
76547;BME280;65390;53.014;8.886;2023-03-01T04:47:16;102990.63;;;-2.05;90.61
76547;BME280;65390;53.014;8.886;2023-03-01T04:49:42;102978.47;;;-1.98;90.13
76547;BME280;65390;53.014;8.886;2023-03-01T04:52:08;102991.78;;;-1.91;89.76
76547;BME280;65390;53.014;8.886;2023-03-01T04:54:34;102985.56;;;-1.96;89.31
76547;BME280;65390;53.014;8.886;2023-03-01T04:57:01;102998.75;;;-1.93;89.35
76547;BME280;65390;53.014;8.886;2023-03-01T04:59:27;102984.44;;;-2.07;89.23
76547;BME280;65390;53.014;8.886;2023-03-01T05:01:54;102977.38;;;-2.09;89.23
76547;BME280;65390;53.014;8.886;2023-03-01T05:04:25;102966.03;;;-2.08;89.08
76547;BME280;65390;53.014;8.886;2023-03-01T05:06:50;102981.75;;;-2.10;89.14
76547;BME280;65390;53.014;8.886;2023-03-01T05:09:16;102977.41;;;-2.08;89.16
76547;BME280;65390;53.014;8.886;2023-03-01T05:11:42;103004.88;;;-1.94;88.74
76547;BME280;65390;53.014;8.886;2023-03-01T05:14:08;102980.69;;;-2.18;88.89
76547;BME280;65390;53.014;8.886;2023-03-01T05:16:34;102978.59;;;-2.34;88.67
76547;BME280;65390;53.014;8.886;2023-03-01T05:19:01;102987.34;;;-2.34;89.37
76547;BME280;65390;53.014;8.886;2023-03-01T05:21:37;102978.13;;;-2.54;89.82
76547;BME280;65390;53.014;8.886;2023-03-01T05:24:22;103007.47;;;-2.34;89.87
76547;BME280;65390;53.014;8.886;2023-03-01T05:26:47;102990.78;;;-2.76;90.90
76547;BME280;65390;53.014;8.886;2023-03-01T05:29:13;102985.88;;;-2.98;91.32
76547;BME280;65390;53.014;8.886;2023-03-01T05:31:38;102999.00;;;-2.96;91.74
76547;BME280;65390;53.014;8.886;2023-03-01T05:34:04;102972.56;;;-3.40;92.30
76547;BME280;65390;53.014;8.886;2023-03-01T05:36:29;102975.38;;;-3.32;93.11
76547;BME280;65390;53.014;8.886;2023-03-01T05:38:55;102982.06;;;-3.44;93.42
76547;BME280;65390;53.014;8.886;2023-03-01T05:41:20;102999.81;;;-3.33;94.08
76547;BME280;65390;53.014;8.886;2023-03-01T05:43:46;102978.22;;;-3.23;94.42
76547;BME280;65390;53.014;8.886;2023-03-01T05:46:11;102981.81;;;-2.85;94.01
76547;BME280;65390;53.014;8.886;2023-03-01T05:48:38;102989.34;;;-2.63;93.50
76547;BME280;65390;53.014;8.886;2023-03-01T05:51:04;102987.78;;;-2.53;92.99
76547;BME280;65390;53.014;8.886;2023-03-01T05:53:29;102981.03;;;-2.81;92.46
76547;BME280;65390;53.014;8.886;2023-03-01T05:55:54;102977.34;;;-2.88;92.67
76547;BME280;65390;53.014;8.886;2023-03-01T05:58:20;102987.63;;;-2.97;92.74
76547;BME280;65390;53.014;8.886;2023-03-01T06:00:47;102992.72;;;-3.05;93.45
76547;BME280;65390;53.014;8.886;2023-03-01T06:03:15;102994.97;;;-2.84;93.93
76547;BME280;65390;53.014;8.886;2023-03-01T06:05:41;102993.22;;;-2.83;93.48
76547;BME280;65390;53.014;8.886;2023-03-01T06:08:09;102978.53;;;-2.75;93.09
76547;BME280;65390;53.014;8.886;2023-03-01T06:10:35;102998.31;;;-2.52;92.77
76547;BME280;65390;53.014;8.886;2023-03-01T06:13:00;103001.28;;;-2.38;92.34
76547;BME280;65390;53.014;8.886;2023-03-01T06:15:26;102982.84;;;-2.39;91.95
76547;BME280;65390;53.014;8.886;2023-03-01T06:17:53;102985.69;;;-2.30;91.57
76547;BME280;65390;53.014;8.886;2023-03-01T06:20:21;102985.19;;;-2.14;91.94
76547;BME280;65390;53.014;8.886;2023-03-01T06:22:47;102995.94;;;-2.02;91.72
76547;BME280;65390;53.014;8.886;2023-03-01T06:25:17;102983.94;;;-1.89;91.93
76547;BME280;65390;53.014;8.886;2023-03-01T06:27:46;103014.06;;;-1.72;91.41
76547;BME280;65390;53.014;8.886;2023-03-01T06:30:20;103022.28;;;-1.55;91.80
76547;BME280;65390;53.014;8.886;2023-03-01T06:32:49;103019.03;;;-1.43;91.54
76547;BME280;65390;53.014;8.886;2023-03-01T06:35:16;103004.84;;;-1.50;91.56
76547;BME280;65390;53.014;8.886;2023-03-01T06:37:45;102985.63;;;-1.47;91.20
76547;BME280;65390;53.014;8.886;2023-03-01T06:40:12;102983.78;;;-1.53;91.02
76547;BME280;65390;53.014;8.886;2023-03-01T06:42:40;102969.69;;;-1.57;90.94
76547;BME280;65390;53.014;8.886;2023-03-01T06:45:06;102985.53;;;-1.52;90.74
76547;BME280;65390;53.014;8.886;2023-03-01T06:47:33;102979.44;;;-1.49;91.15
76547;BME280;65390;53.014;8.886;2023-03-01T06:49:59;102989.34;;;-1.36;90.85
76547;BME280;65390;53.014;8.886;2023-03-01T06:52:25;102988.72;;;-1.22;91.12
76547;BME280;65390;53.014;8.886;2023-03-01T06:54:50;102997.22;;;-0.88;91.00
76547;BME280;65390;53.014;8.886;2023-03-01T06:57:19;102978.06;;;-0.76;90.59
76547;BME280;65390;53.014;8.886;2023-03-01T06:59:57;102973.00;;;-0.64;90.42
76547;BME280;65390;53.014;8.886;2023-03-01T07:02:29;103004.03;;;-0.42;89.38
76547;BME280;65390;53.014;8.886;2023-03-01T07:04:57;102980.31;;;-0.45;89.50
76547;BME280;65390;53.014;8.886;2023-03-01T07:07:22;103008.94;;;-0.07;89.42
76547;BME280;65390;53.014;8.886;2023-03-01T07:09:51;102989.59;;;-0.06;88.75
76547;BME280;65390;53.014;8.886;2023-03-01T07:12:20;103005.69;;;0.17;88.31
76547;BME280;65390;53.014;8.886;2023-03-01T07:14:55;103010.66;;;-0.11;88.26
76547;BME280;65390;53.014;8.886;2023-03-01T07:17:24;102986.09;;;-0.07;88.99
76547;BME280;65390;53.014;8.886;2023-03-01T07:19:52;103016.44;;;0.32;89.34
76547;BME280;65390;53.014;8.886;2023-03-01T07:22:17;102989.13;;;0.24;88.16
76547;BME280;65390;53.014;8.886;2023-03-01T07:24:43;102989.34;;;-0.26;88.68
76547;BME280;65390;53.014;8.886;2023-03-01T07:27:09;102985.41;;;-0.55;89.82
76547;BME280;65390;53.014;8.886;2023-03-01T07:29:46;103009.53;;;-0.26;90.69
76547;BME280;65390;53.014;8.886;2023-03-01T07:32:11;102998.78;;;-0.40;91.19
76547;BME280;65390;53.014;8.886;2023-03-01T07:34:37;102976.47;;;-0.67;92.04
76547;BME280;65390;53.014;8.886;2023-03-01T07:37:02;102977.38;;;-0.01;92.95
76547;BME280;65390;53.014;8.886;2023-03-01T07:39:28;102990.28;;;0.52;92.01
76547;BME280;65390;53.014;8.886;2023-03-01T07:41:53;102992.41;;;0.88;90.37
76547;BME280;65390;53.014;8.886;2023-03-01T07:44:18;102977.84;;;1.40;90.47
76547;BME280;65390;53.014;8.886;2023-03-01T07:46:44;102988.66;;;1.78;88.43
76547;BME280;65390;53.014;8.886;2023-03-01T07:49:10;102983.59;;;2.26;87.63
76547;BME280;65390;53.014;8.886;2023-03-01T07:51:35;102986.38;;;2.96;85.42
76547;BME280;65390;53.014;8.886;2023-03-01T07:54:01;102969.59;;;3.11;83.57
76547;BME280;65390;53.014;8.886;2023-03-01T07:56:26;102971.94;;;4.27;82.76
76547;BME280;65390;53.014;8.886;2023-03-01T07:58:51;102971.81;;;4.52;80.30
76547;BME280;65390;53.014;8.886;2023-03-01T08:01:19;102950.66;;;4.30;77.93
76547;BME280;65390;53.014;8.886;2023-03-01T08:03:45;102978.22;;;4.06;77.38
76547;BME280;65390;53.014;8.886;2023-03-01T08:06:12;102976.53;;;3.83;77.60
76547;BME280;65390;53.014;8.886;2023-03-01T08:08:38;102978.31;;;3.83;77.33
76547;BME280;65390;53.014;8.886;2023-03-01T08:11:05;102972.09;;;3.88;77.98
76547;BME280;65390;53.014;8.886;2023-03-01T08:13:31;102979.16;;;3.96;78.86
76547;BME280;65390;53.014;8.886;2023-03-01T08:16:07;102962.22;;;4.22;78.84
76547;BME280;65390;53.014;8.886;2023-03-01T08:18:33;102980.66;;;4.45;78.09
76547;BME280;65390;53.014;8.886;2023-03-01T08:21:03;102990.34;;;4.57;77.35
76547;BME280;65390;53.014;8.886;2023-03-01T08:23:29;102972.81;;;4.27;77.20
76547;BME280;65390;53.014;8.886;2023-03-01T08:26:07;102979.09;;;4.09;77.16
76547;BME280;65390;53.014;8.886;2023-03-01T08:28:33;102960.50;;;4.11;77.43
76547;BME280;65390;53.014;8.886;2023-03-01T08:30:58;102964.88;;;4.22;77.29
76547;BME280;65390;53.014;8.886;2023-03-01T08:33:24;102950.00;;;3.88;77.33
76547;BME280;65390;53.014;8.886;2023-03-01T08:35:52;102998.72;;;3.52;77.98
76547;BME280;65390;53.014;8.886;2023-03-01T08:38:17;102967.81;;;2.75;80.22
76547;BME280;65390;53.014;8.886;2023-03-01T08:40:43;102974.91;;;2.88;82.10
76547;BME280;65390;53.014;8.886;2023-03-01T08:43:08;102966.06;;;3.16;81.62
76547;BME280;65390;53.014;8.886;2023-03-01T08:45:33;102972.22;;;3.49;81.75
76547;BME280;65390;53.014;8.886;2023-03-01T08:47:59;102960.66;;;3.74;81.13
76547;BME280;65390;53.014;8.886;2023-03-01T08:50:24;102954.41;;;3.97;79.78
76547;BME280;65390;53.014;8.886;2023-03-01T08:52:50;102939.25;;;4.20;79.89
76547;BME280;65390;53.014;8.886;2023-03-01T08:55:16;102946.06;;;4.61;80.09
76547;BME280;65390;53.014;8.886;2023-03-01T08:57:43;102948.63;;;4.76;78.65
76547;BME280;65390;53.014;8.886;2023-03-01T09:00:09;102921.13;;;4.78;78.96
76547;BME280;65390;53.014;8.886;2023-03-01T09:02:36;102932.28;;;5.22;78.69
76547;BME280;65390;53.014;8.886;2023-03-01T09:05:01;102959.56;;;5.40;77.35
76547;BME280;65390;53.014;8.886;2023-03-01T09:07:27;102940.47;;;4.97;76.17
76547;BME280;65390;53.014;8.886;2023-03-01T09:09:55;102938.47;;;5.24;75.82
76547;BME280;65390;53.014;8.886;2023-03-01T09:12:21;102940.94;;;5.43;75.37
76547;BME280;65390;53.014;8.886;2023-03-01T09:14:46;102933.00;;;5.39;75.10
76547;BME280;65390;53.014;8.886;2023-03-01T09:17:11;102955.66;;;5.75;75.20
76547;BME280;65390;53.014;8.886;2023-03-01T09:19:37;102933.44;;;5.79;73.67
76547;BME280;65390;53.014;8.886;2023-03-01T09:22:03;102935.97;;;5.88;73.90
76547;BME280;65390;53.014;8.886;2023-03-01T09:24:29;102927.97;;;5.88;72.00
76547;BME280;65390;53.014;8.886;2023-03-01T09:26:55;102933.72;;;6.25;72.02
76547;BME280;65390;53.014;8.886;2023-03-01T09:29:21;102934.06;;;6.65;71.23
76547;BME280;65390;53.014;8.886;2023-03-01T09:31:47;102930.38;;;6.73;70.15
76547;BME280;65390;53.014;8.886;2023-03-01T09:34:12;102931.53;;;6.55;70.88
76547;BME280;65390;53.014;8.886;2023-03-01T09:36:41;102931.75;;;6.40;71.95
76547;BME280;65390;53.014;8.886;2023-03-01T09:39:06;102940.16;;;6.12;72.99
76547;BME280;65390;53.014;8.886;2023-03-01T09:41:54;102949.97;;;6.05;73.54
76547;BME280;65390;53.014;8.886;2023-03-01T09:44:35;102935.91;;;5.96;75.45
76547;BME280;65390;53.014;8.886;2023-03-01T09:47:02;102936.94;;;5.83;75.64
76547;BME280;65390;53.014;8.886;2023-03-01T09:49:30;102909.81;;;5.50;75.53
76547;BME280;65390;53.014;8.886;2023-03-01T09:52:23;102960.47;;;5.41;76.10
76547;BME280;65390;53.014;8.886;2023-03-01T09:54:54;102936.09;;;4.92;77.57
76547;BME280;65390;53.014;8.886;2023-03-01T10:10:26;102915.72;;;5.78;76.30
76547;BME280;65390;53.014;8.886;2023-03-01T10:12:53;102938.41;;;6.11;75.44
76547;BME280;65390;53.014;8.886;2023-03-01T10:15:22;102933.59;;;6.36;75.50
76547;BME280;65390;53.014;8.886;2023-03-01T10:17:54;102926.50;;;6.35;74.18
76547;BME280;65390;53.014;8.886;2023-03-01T10:20:24;102903.44;;;6.34;73.94
76547;BME280;65390;53.014;8.886;2023-03-01T10:22:50;102895.25;;;6.46;74.77
76547;BME280;65390;53.014;8.886;2023-03-01T10:28:48;102874.84;;;6.47;74.27
76547;BME280;65390;53.014;8.886;2023-03-01T10:31:19;102920.75;;;6.62;71.08
76547;BME280;65390;53.014;8.886;2023-03-01T10:33:48;102912.69;;;6.69;72.02
76547;BME280;65390;53.014;8.886;2023-03-01T10:36:17;102894.75;;;6.78;71.87
76547;BME280;65390;53.014;8.886;2023-03-01T10:41:15;102906.72;;;7.05;71.41
76547;BME280;65390;53.014;8.886;2023-03-01T10:43:49;102902.28;;;7.06;69.83
76547;BME280;65390;53.014;8.886;2023-03-01T10:46:35;102898.47;;;7.20;68.88
76547;BME280;65390;53.014;8.886;2023-03-01T10:49:21;102914.88;;;7.45;68.69
76547;BME280;65390;53.014;8.886;2023-03-01T10:51:58;102892.47;;;7.55;68.44
76547;BME280;65390;53.014;8.886;2023-03-01T10:54:40;102927.91;;;7.61;67.13
76547;BME280;65390;53.014;8.886;2023-03-01T10:57:36;102912.66;;;7.67;67.57
76547;BME280;65390;53.014;8.886;2023-03-01T11:00:30;102890.31;;;7.28;66.56
76547;BME280;65390;53.014;8.886;2023-03-01T11:05:26;102877.75;;;6.87;66.86
76547;BME280;65390;53.014;8.886;2023-03-01T11:07:55;102874.81;;;7.02;67.43
76547;BME280;65390;53.014;8.886;2023-03-01T11:10:48;102923.31;;;7.22;68.69
76547;BME280;65390;53.014;8.886;2023-03-01T11:13:18;102893.72;;;6.87;67.67
76547;BME280;65390;53.014;8.886;2023-03-01T11:16:09;102909.28;;;7.11;69.28
76547;BME280;65390;53.014;8.886;2023-03-01T11:18:36;102892.47;;;7.08;68.62
76547;BME280;65390;53.014;8.886;2023-03-01T11:21:02;102869.19;;;7.16;68.35
76547;BME280;65390;53.014;8.886;2023-03-01T11:23:30;102890.69;;;7.54;68.30
76547;BME280;65390;53.014;8.886;2023-03-01T11:25:59;102887.22;;;7.49;68.75
76547;BME280;65390;53.014;8.886;2023-03-01T11:28:29;102866.09;;;7.39;69.37
76547;BME280;65390;53.014;8.886;2023-03-01T11:31:09;102905.97;;;7.46;68.88
76547;BME280;65390;53.014;8.886;2023-03-01T11:34:05;102848.53;;;7.27;70.05
76547;BME280;65390;53.014;8.886;2023-03-01T11:36:49;102880.34;;;7.38;72.04
76547;BME280;65390;53.014;8.886;2023-03-01T11:39:28;102870.81;;;7.24;72.85
76547;BME280;65390;53.014;8.886;2023-03-01T11:42:12;102900.81;;;7.37;73.59
76547;BME280;65390;53.014;8.886;2023-03-01T11:44:42;102873.72;;;7.12;74.24
76547;BME280;65390;53.014;8.886;2023-03-01T11:53:00;102897.28;;;7.35;74.51
76547;BME280;65390;53.014;8.886;2023-03-01T11:55:55;102889.25;;;7.38;74.30
76547;BME280;65390;53.014;8.886;2023-03-01T12:06:56;102869.34;;;7.53;75.36
76547;BME280;65390;53.014;8.886;2023-03-01T12:28:48;102841.59;;;7.63;75.05
76547;BME280;65390;53.014;8.886;2023-03-01T12:31:29;102855.97;;;7.56;75.15
76547;BME280;65390;53.014;8.886;2023-03-01T12:34:34;102837.41;;;7.50;76.15
76547;BME280;65390;53.014;8.886;2023-03-01T12:37:29;102846.88;;;7.65;74.92
76547;BME280;65390;53.014;8.886;2023-03-01T12:42:53;102809.03;;;7.46;74.89
76547;BME280;65390;53.014;8.886;2023-03-01T12:50:53;102785.31;;;7.74;74.46
76547;BME280;65390;53.014;8.886;2023-03-01T12:53:24;102799.50;;;7.76;75.06
76547;BME280;65390;53.014;8.886;2023-03-01T12:55:52;102791.53;;;7.74;75.31
76547;BME280;65390;53.014;8.886;2023-03-01T13:01:47;102823.00;;;7.99;75.79
76547;BME280;65390;53.014;8.886;2023-03-01T13:04:02;102762.22;;;7.73;75.46
76547;BME280;65390;53.014;8.886;2023-03-01T13:06:40;102800.66;;;8.03;75.09
76547;BME280;65390;53.014;8.886;2023-03-01T13:12:03;102769.88;;;7.86;75.50
76547;BME280;65390;53.014;8.886;2023-03-01T13:16:57;102795.19;;;8.07;74.86
76547;BME280;65390;53.014;8.886;2023-03-01T13:19:28;102773.22;;;7.96;75.13
76547;BME280;65390;53.014;8.886;2023-03-01T13:22:29;102747.38;;;7.98;75.33
76547;BME280;65390;53.014;8.886;2023-03-01T13:25:14;102790.25;;;8.29;74.14
76547;BME280;65390;53.014;8.886;2023-03-01T13:27:43;102754.38;;;8.02;74.71
76547;BME280;65390;53.014;8.886;2023-03-01T13:30:40;102759.69;;;8.04;74.35
76547;BME280;65390;53.014;8.886;2023-03-01T13:35:55;102753.25;;;8.12;75.34
76547;BME280;65390;53.014;8.886;2023-03-01T13:41:04;102768.16;;;8.21;74.29
76547;BME280;65390;53.014;8.886;2023-03-01T13:43:32;102760.31;;;8.15;74.73
76547;BME280;65390;53.014;8.886;2023-03-01T13:46:00;102771.75;;;8.20;75.32
76547;BME280;65390;53.014;8.886;2023-03-01T13:48:28;102747.25;;;8.03;74.87
76547;BME280;65390;53.014;8.886;2023-03-01T13:51:00;102732.44;;;7.91;74.37
76547;BME280;65390;53.014;8.886;2023-03-01T13:53:34;102743.91;;;7.95;75.10
76547;BME280;65390;53.014;8.886;2023-03-01T13:56:16;102762.66;;;7.92;74.66
76547;BME280;65390;53.014;8.886;2023-03-01T13:59:05;102733.66;;;7.76;74.59
76547;BME280;65390;53.014;8.886;2023-03-01T14:01:34;102740.25;;;7.99;74.73
76547;BME280;65390;53.014;8.886;2023-03-01T14:04:03;102713.59;;;7.97;75.10
76547;BME280;65390;53.014;8.886;2023-03-01T14:06:46;102742.50;;;8.15;74.27
76547;BME280;65390;53.014;8.886;2023-03-01T14:09:18;102739.50;;;8.29;74.42
76547;BME280;65390;53.014;8.886;2023-03-01T14:14:56;102744.97;;;8.23;75.02
76547;BME280;65390;53.014;8.886;2023-03-01T14:20:00;102718.75;;;8.03;75.32
76547;BME280;65390;53.014;8.886;2023-03-01T14:22:32;102671.00;;;7.93;74.91
76547;BME280;65390;53.014;8.886;2023-03-01T14:25:05;102722.22;;;8.07;75.42
76547;BME280;65390;53.014;8.886;2023-03-01T14:27:41;102728.97;;;7.86;75.34
76547;BME280;65390;53.014;8.886;2023-03-01T14:30:15;102709.19;;;7.95;76.23
76547;BME280;65390;53.014;8.886;2023-03-01T14:32:56;102713.84;;;7.86;76.30
76547;BME280;65390;53.014;8.886;2023-03-01T14:35:25;102695.63;;;7.67;76.86
76547;BME280;65390;53.014;8.886;2023-03-01T14:37:51;102701.41;;;7.85;76.11
76547;BME280;65390;53.014;8.886;2023-03-01T14:40:28;102656.06;;;7.84;76.50